Agra, Kansas
Current Conditions -  °F | °C
As of 1:53 AM on Sunday 26 Oct 2014 (Local Time) from KHLC Reporting Station
Clear Clear  
Wind Chill: 58°   Ceiling: Unl
Heat Index: 58°   Visibility: 10mi
Dew Point: 49°   Wind: 5mph
Humidity: 72%   Direction: 110°ESE
Pressure: 29.86"   Gusts: NA
Location:  39.76°N, 99.12°W
Report Text: KHLC 260653Z AUTO 11004KT 10SM CLR 14/09 A2986 RMK AO2 SLP093 T01440094
Loading
Personal Weather Stations






























Interactive Weather Map
Tropical Storm Tracking
New forecast layout! Learn more

10-Day Weather Forecast

Advertisements
Track Severe Weather on mobile